createdAt,value
2023-03-29T00:01:35.547Z,5.85
2023-03-29T00:04:06.417Z,5.15
2023-03-29T00:06:35.714Z,4.97
2023-03-29T00:09:05.895Z,4.88
2023-03-29T00:11:34.049Z,5.55
2023-03-29T00:14:02.582Z,5.07
2023-03-29T00:16:33.030Z,4.55
2023-03-29T00:19:02.453Z,4.32
2023-03-29T00:21:31.847Z,3.80
2023-03-29T00:23:59.893Z,4.45
2023-03-29T00:26:28.006Z,5.03
2023-03-29T00:28:56.392Z,4.30
2023-03-29T00:31:24.519Z,3.33
2023-03-29T00:33:53.624Z,3.45
2023-03-29T00:36:22.359Z,4.13
2023-03-29T00:38:50.526Z,3.88
2023-03-29T00:41:18.708Z,3.70
2023-03-29T00:43:57.761Z,4.10
2023-03-29T00:46:27.598Z,3.50
2023-03-29T00:49:03.997Z,3.80
2023-03-29T00:51:37.515Z,3.97
2023-03-29T00:54:16.277Z,3.65
2023-03-29T00:56:47.218Z,4.07
2023-03-29T00:59:28.383Z,3.78
2023-03-29T01:02:03.553Z,4.97
2023-03-29T01:04:43.249Z,4.25
2023-03-29T01:07:40.086Z,3.53
2023-03-29T01:10:26.836Z,3.55
2023-03-29T01:13:04.306Z,4.97
2023-03-29T01:15:34.461Z,5.05
2023-03-29T01:18:02.771Z,3.70
2023-03-29T01:20:49.264Z,3.35
2023-03-29T01:23:38.952Z,3.75
2023-03-29T01:26:29.759Z,4.30
2023-03-29T01:29:26.250Z,3.65
2023-03-29T01:32:36.948Z,3.92
2023-03-29T01:35:11.470Z,3.65
2023-03-29T01:37:49.745Z,4.70
2023-03-29T01:40:18.443Z,3.33
2023-03-29T01:42:53.054Z,3.00
2023-03-29T01:45:31.676Z,4.13
2023-03-29T01:48:13.909Z,4.00
2023-03-29T01:51:00.077Z,3.50
2023-03-29T01:53:39.555Z,3.58
2023-03-29T01:56:13.861Z,3.97
2023-03-29T01:58:46.701Z,3.65
2023-03-29T02:01:23.289Z,5.10
2023-03-29T02:03:59.367Z,3.85
2023-03-29T02:06:30.828Z,3.88
2023-03-29T02:09:05.019Z,3.85
2023-03-29T02:11:35.132Z,3.55
2023-03-29T02:14:03.905Z,3.72
2023-03-29T02:16:41.046Z,4.10
2023-03-29T02:19:10.888Z,3.83
2023-03-29T02:21:51.985Z,3.60
2023-03-29T02:24:22.305Z,3.63
2023-03-29T02:26:51.107Z,3.17
2023-03-29T02:29:19.589Z,3.33
2023-03-29T02:31:55.791Z,3.80
2023-03-29T02:34:31.424Z,3.22
2023-03-29T02:37:13.079Z,3.80
2023-03-29T02:39:43.006Z,4.32
2023-03-29T02:42:11.501Z,3.72
2023-03-29T02:44:45.552Z,4.22
2023-03-29T02:47:33.809Z,4.15
2023-03-29T02:50:03.151Z,3.78
2023-03-29T02:52:37.582Z,5.05
2023-03-29T02:57:39.980Z,3.72
2023-03-29T03:00:10.335Z,2.88
2023-03-29T03:02:38.991Z,3.45
2023-03-29T03:05:09.678Z,3.20
2023-03-29T03:07:40.821Z,3.05
2023-03-29T03:10:11.281Z,3.25
2023-03-29T03:12:41.612Z,3.80
2023-03-29T03:15:10.677Z,3.95
2023-03-29T03:17:41.183Z,3.70
2023-03-29T03:20:15.049Z,4.18
2023-03-29T03:22:49.314Z,3.38
2023-03-29T03:25:22.125Z,3.40
2023-03-29T03:30:22.754Z,2.75
2023-03-29T03:33:03.351Z,2.95
2023-03-29T03:35:50.336Z,3.25
2023-03-29T03:38:19.877Z,2.80
2023-03-29T03:40:58.887Z,2.50
2023-03-29T03:43:28.377Z,3.22
2023-03-29T03:45:57.802Z,3.05
2023-03-29T03:48:28.130Z,3.22
2023-03-29T03:51:10.381Z,3.47
2023-03-29T03:53:38.624Z,3.83
2023-03-29T03:56:29.990Z,4.05
2023-03-29T03:58:59.106Z,3.17
2023-03-29T04:01:28.706Z,3.35
2023-03-29T04:04:07.381Z,2.45
2023-03-29T04:06:35.517Z,2.95
2023-03-29T04:09:23.463Z,3.00
2023-03-29T04:12:05.651Z,3.67
2023-03-29T04:14:35.810Z,3.45
2023-03-29T04:17:09.916Z,4.22
2023-03-29T04:20:15.162Z,3.22
2023-03-29T04:22:43.853Z,3.08
2023-03-29T04:25:12.026Z,3.70
2023-03-29T04:27:51.482Z,3.45
2023-03-29T04:30:37.181Z,2.63
2023-03-29T04:33:22.006Z,3.03
2023-03-29T04:35:59.955Z,2.92
2023-03-29T04:38:29.225Z,3.10
2023-03-29T04:41:01.413Z,3.10
2023-03-29T04:43:46.916Z,3.92
2023-03-29T04:46:30.153Z,3.65
2023-03-29T04:49:17.388Z,3.45
2023-03-29T04:51:50.380Z,3.65
2023-03-29T04:54:22.517Z,3.50
2023-03-29T04:57:20.746Z,3.78
2023-03-29T05:00:15.313Z,3.58
2023-03-29T05:03:07.894Z,4.18
2023-03-29T05:05:42.049Z,3.80
2023-03-29T05:08:10.890Z,5.13
2023-03-29T05:10:53.595Z,4.68
2023-03-29T05:13:21.876Z,4.20
2023-03-29T05:15:50.650Z,4.43
2023-03-29T05:18:20.018Z,4.70
2023-03-29T05:20:48.790Z,4.53
2023-03-29T05:23:20.730Z,4.95
2023-03-29T05:26:15.097Z,4.97
2023-03-29T05:28:49.369Z,4.50
2023-03-29T05:31:19.494Z,4.43
2023-03-29T05:33:52.231Z,4.60
2023-03-29T05:36:21.881Z,4.40
2023-03-29T05:38:51.902Z,4.72
2023-03-29T05:41:27.014Z,4.60
2023-03-29T05:44:24.238Z,4.70
2023-03-29T05:46:58.235Z,4.70
2023-03-29T05:49:27.538Z,5.30
2023-03-29T05:52:11.053Z,4.50
2023-03-29T05:54:41.555Z,4.88
2023-03-29T05:57:10.891Z,5.03
2023-03-29T05:59:40.043Z,5.30
2023-03-29T06:02:10.056Z,5.55
2023-03-29T06:04:42.454Z,6.10
2023-03-29T06:07:26.099Z,5.43
2023-03-29T06:10:21.172Z,4.38
2023-03-29T06:12:56.735Z,3.10
2023-03-29T06:15:26.438Z,3.65
2023-03-29T06:18:03.877Z,3.97
2023-03-29T06:20:33.165Z,4.25
2023-03-29T06:23:08.888Z,4.20
2023-03-29T06:25:37.072Z,3.88
2023-03-29T06:28:07.628Z,4.07
2023-03-29T06:30:37.137Z,4.53
2023-03-29T06:33:07.306Z,5.05
2023-03-29T06:35:56.802Z,3.92
2023-03-29T06:38:29.198Z,3.72
2023-03-29T06:41:29.831Z,3.65
2023-03-29T06:44:07.206Z,4.22
2023-03-29T06:46:41.037Z,5.72
2023-03-29T06:49:11.845Z,20.95
2023-03-29T06:51:55.338Z,8.35
2023-03-29T06:54:24.732Z,10.48
2023-03-29T06:57:05.283Z,5.95
2023-03-29T06:59:35.863Z,4.88
2023-03-29T07:02:34.744Z,7.53
2023-03-29T07:05:13.709Z,4.78
2023-03-29T07:08:05.694Z,6.70
2023-03-29T07:11:01.503Z,6.10
2023-03-29T07:14:03.356Z,5.38
2023-03-29T07:16:32.775Z,5.43
2023-03-29T07:19:22.976Z,5.15
2023-03-29T07:21:54.225Z,6.13
2023-03-29T07:24:28.549Z,9.23
2023-03-29T07:27:04.253Z,7.93
2023-03-29T07:29:34.298Z,11.75
2023-03-29T07:32:02.481Z,15.95
2023-03-29T07:35:05.432Z,15.98
2023-03-29T07:37:37.615Z,11.48
2023-03-29T07:40:16.576Z,13.02
2023-03-29T07:43:09.172Z,12.25
2023-03-29T07:45:42.428Z,12.10
2023-03-29T07:48:13.513Z,11.35
2023-03-29T07:50:54.632Z,8.55
2023-03-29T07:53:29.836Z,11.75
2023-03-29T07:56:00.827Z,10.07
2023-03-29T07:58:55.303Z,9.40
2023-03-29T08:01:24.999Z,8.88
2023-03-29T08:04:00.093Z,7.55
2023-03-29T08:06:49.175Z,6.35
2023-03-29T08:09:17.826Z,5.28
2023-03-29T08:11:46.791Z,4.65
2023-03-29T08:14:26.667Z,4.47
2023-03-29T08:17:07.287Z,4.30
2023-03-29T08:19:41.958Z,3.00
2023-03-29T08:22:22.764Z,3.15
2023-03-29T08:25:22.049Z,3.00
2023-03-29T08:27:54.302Z,2.67
2023-03-29T08:30:32.553Z,3.67
2023-03-29T08:33:03.163Z,3.13
2023-03-29T08:35:31.935Z,3.35
2023-03-29T08:38:22.824Z,3.05
2023-03-29T08:40:52.192Z,2.80
2023-03-29T08:43:55.023Z,2.67
2023-03-29T08:47:01.103Z,3.08
2023-03-29T08:49:38.911Z,2.10
2023-03-29T08:54:49.200Z,2.30
2023-03-29T08:57:33.923Z,2.53
2023-03-29T09:00:10.763Z,2.30
2023-03-29T09:02:44.364Z,2.80
2023-03-29T09:05:28.297Z,2.58
2023-03-29T09:08:19.725Z,2.58
2023-03-29T09:11:09.119Z,3.38
2023-03-29T09:13:49.757Z,2.92
2023-03-29T09:16:38.341Z,3.20
2023-03-29T09:19:12.786Z,3.03
2023-03-29T09:21:51.826Z,3.80
2023-03-29T09:24:37.674Z,3.40
2023-03-29T09:27:37.996Z,3.20
2023-03-29T09:30:41.916Z,4.40
2023-03-29T09:33:46.941Z,3.33
2023-03-29T09:36:51.485Z,4.13
2023-03-29T09:39:22.352Z,4.03
2023-03-29T09:42:12.278Z,4.05
2023-03-29T09:44:47.290Z,4.40
2023-03-29T09:47:38.248Z,4.00
2023-03-29T09:50:32.027Z,3.55
2023-03-29T09:53:05.891Z,3.95
2023-03-29T09:55:40.950Z,3.10
2023-03-29T09:58:34.397Z,3.97
2023-03-29T10:01:09.643Z,3.22
2023-03-29T10:03:41.332Z,2.92
2023-03-29T10:06:15.071Z,3.28
2023-03-29T10:11:23.693Z,2.47
2023-03-29T10:13:57.003Z,2.60
2023-03-29T10:16:31.167Z,2.90
2023-03-29T10:19:19.012Z,2.63
2023-03-29T10:21:50.170Z,3.33
2023-03-29T10:24:21.185Z,4.07
2023-03-29T10:26:55.913Z,3.90
2023-03-29T10:29:26.512Z,3.95
2023-03-29T10:31:55.769Z,4.18
2023-03-29T10:34:28.331Z,3.40
2023-03-29T10:36:59.985Z,2.90
2023-03-29T10:39:31.959Z,3.25
2023-03-29T10:42:03.663Z,2.45
2023-03-29T10:44:35.121Z,3.85
2023-03-29T10:47:19.634Z,3.60
2023-03-29T10:50:10.064Z,3.47
2023-03-29T10:52:41.266Z,4.65
2023-03-29T10:55:14.234Z,3.10
2023-03-29T10:58:00.828Z,3.05
2023-03-29T11:00:51.250Z,3.47
2023-03-29T11:03:26.834Z,2.88
2023-03-29T11:06:08.424Z,3.75
2023-03-29T11:08:59.781Z,3.33
2023-03-29T11:11:36.915Z,10.55
2023-03-29T11:14:14.725Z,3.80
2023-03-29T11:17:07.707Z,3.42
2023-03-29T11:20:00.273Z,2.40
2023-03-29T11:22:48.943Z,5.65
2023-03-29T11:25:32.922Z,3.55
2023-03-29T11:28:39.122Z,11.90
2023-03-29T11:31:38.763Z,2.40
2023-03-29T11:34:27.179Z,2.58
2023-03-29T11:36:59.866Z,2.63
2023-03-29T11:39:41.850Z,3.47
2023-03-29T11:42:18.982Z,4.95
2023-03-29T11:44:53.456Z,3.70
2023-03-29T11:47:35.211Z,4.90
2023-03-29T11:50:22.045Z,3.50
2023-03-29T11:52:55.701Z,3.25
2023-03-29T11:55:40.074Z,3.33
2023-03-29T11:58:20.208Z,3.00
2023-03-29T12:01:40.126Z,2.80
2023-03-29T12:04:30.620Z,2.50
2023-03-29T12:07:11.009Z,1.90
2023-03-29T12:09:50.373Z,3.20
2023-03-29T12:12:23.742Z,2.45
2023-03-29T12:15:17.492Z,1.90
2023-03-29T12:18:16.645Z,6.18
2023-03-29T12:20:52.876Z,2.92
2023-03-29T12:23:22.731Z,2.78
2023-03-29T12:26:07.282Z,2.40
2023-03-29T12:28:50.435Z,2.25
2023-03-29T12:31:29.185Z,2.85
2023-03-29T12:34:54.925Z,2.72
2023-03-29T12:38:00.048Z,2.20
2023-03-29T12:40:54.114Z,4.28
2023-03-29T12:43:43.649Z,2.88
2023-03-29T12:46:35.811Z,3.53
2023-03-29T12:49:29.820Z,3.53
2023-03-29T12:51:59.785Z,2.70
2023-03-29T12:54:33.689Z,2.58
2023-03-29T12:57:28.365Z,2.63
2023-03-29T12:59:57.224Z,2.17
2023-03-29T13:02:28.023Z,1.83
2023-03-29T13:04:58.198Z,1.92
2023-03-29T13:07:29.053Z,3.08
2023-03-29T13:09:59.916Z,1.73
2023-03-29T13:12:47.628Z,2.10
2023-03-29T13:15:19.019Z,4.28
2023-03-29T13:17:50.805Z,2.22
2023-03-29T13:20:40.255Z,7.05
2023-03-29T13:23:24.491Z,4.45
2023-03-29T13:25:59.201Z,2.72
2023-03-29T13:28:48.225Z,1.70
2023-03-29T13:31:42.300Z,2.10
2023-03-29T13:34:22.180Z,1.73
2023-03-29T13:37:22.111Z,2.22
2023-03-29T13:39:54.307Z,1.80
2023-03-29T13:42:36.594Z,2.33
2023-03-29T13:45:30.238Z,2.53
2023-03-29T13:48:23.756Z,2.50
2023-03-29T13:53:34.557Z,1.90
2023-03-29T13:56:04.013Z,2.20
2023-03-29T13:58:52.531Z,2.13
2023-03-29T14:01:43.380Z,2.00
2023-03-29T14:04:17.411Z,2.55
2023-03-29T14:06:53.254Z,2.90
2023-03-29T14:09:28.587Z,4.15
2023-03-29T14:12:01.319Z,1.95
2023-03-29T14:14:33.050Z,2.53
2023-03-29T14:17:02.139Z,2.17
2023-03-29T14:19:37.000Z,3.58
2023-03-29T14:22:14.118Z,1.98
2023-03-29T14:24:49.346Z,2.55
2023-03-29T14:27:19.608Z,5.32
2023-03-29T14:29:50.077Z,3.60
2023-03-29T14:32:27.671Z,2.20
2023-03-29T14:34:56.846Z,2.95
2023-03-29T14:37:29.294Z,2.17
2023-03-29T14:39:59.639Z,2.50
2023-03-29T14:42:29.322Z,2.80
2023-03-29T14:45:04.539Z,3.13
2023-03-29T14:47:34.455Z,4.05
2023-03-29T14:50:04.125Z,2.28
2023-03-29T14:52:32.793Z,2.17
2023-03-29T14:55:04.386Z,2.15
2023-03-29T14:57:36.516Z,2.10
2023-03-29T15:00:36.456Z,2.38
2023-03-29T15:03:13.303Z,2.35
2023-03-29T15:05:47.368Z,2.60
2023-03-29T15:08:20.171Z,2.13
2023-03-29T15:10:49.485Z,3.65
2023-03-29T15:13:24.761Z,4.18
2023-03-29T15:15:57.313Z,2.00
2023-03-29T15:18:40.147Z,2.40
2023-03-29T15:21:11.391Z,2.70
2023-03-29T15:23:59.339Z,9.00
2023-03-29T15:26:39.012Z,1.90
2023-03-29T15:29:13.714Z,2.63
2023-03-29T15:31:42.808Z,1.90
2023-03-29T15:34:25.526Z,2.28
2023-03-29T15:36:54.489Z,2.17
2023-03-29T15:39:23.134Z,2.92
2023-03-29T15:41:53.582Z,2.15
2023-03-29T15:44:29.130Z,2.22
2023-03-29T15:46:58.606Z,2.25
2023-03-29T15:49:27.590Z,2.97
2023-03-29T15:51:55.745Z,2.97
2023-03-29T15:54:24.947Z,3.10
2023-03-29T15:57:02.138Z,4.20
2023-03-29T15:59:31.953Z,3.15
2023-03-29T16:02:01.469Z,3.92
2023-03-29T16:04:30.170Z,3.22
2023-03-29T16:06:58.508Z,2.38
2023-03-29T16:09:27.478Z,3.28
2023-03-29T16:11:56.361Z,2.60
2023-03-29T16:14:27.508Z,2.33
2023-03-29T16:16:59.457Z,2.35
2023-03-29T16:19:30.034Z,3.00
2023-03-29T16:22:01.409Z,6.80
2023-03-29T16:24:33.685Z,4.78
2023-03-29T16:27:03.383Z,3.28
2023-03-29T16:29:32.116Z,2.30
2023-03-29T16:32:01.097Z,2.10
2023-03-29T16:34:30.228Z,3.78
2023-03-29T16:36:59.613Z,2.38
2023-03-29T16:39:28.896Z,2.30
2023-03-29T16:41:57.922Z,2.33
2023-03-29T16:44:28.221Z,2.85
2023-03-29T16:46:58.755Z,2.20
2023-03-29T16:49:28.703Z,2.00
2023-03-29T16:51:57.391Z,2.40
2023-03-29T16:54:29.885Z,2.13
2023-03-29T16:56:58.405Z,2.20
2023-03-29T16:59:27.248Z,4.38
2023-03-29T17:01:55.373Z,5.28
2023-03-29T17:04:24.569Z,8.35
2023-03-29T17:06:53.706Z,2.70
2023-03-29T17:09:22.408Z,3.70
2023-03-29T17:11:51.066Z,3.17
2023-03-29T17:14:20.096Z,3.55
2023-03-29T17:16:48.412Z,10.85
2023-03-29T17:19:17.445Z,3.42
2023-03-29T17:21:46.464Z,3.55
2023-03-29T17:24:14.615Z,2.95
2023-03-29T17:26:45.670Z,3.80
2023-03-29T17:29:14.071Z,3.45
2023-03-29T17:31:51.259Z,3.35
2023-03-29T17:34:20.062Z,3.45
2023-03-29T17:36:49.211Z,2.78
2023-03-29T17:39:18.866Z,3.33
2023-03-29T17:41:48.637Z,3.60
2023-03-29T17:44:16.976Z,4.53
2023-03-29T17:46:45.535Z,4.68
2023-03-29T17:49:15.003Z,3.50
2023-03-29T17:51:43.490Z,3.88
2023-03-29T17:54:12.382Z,4.95
2023-03-29T17:56:41.132Z,4.70
2023-03-29T17:59:09.898Z,4.80
2023-03-29T18:01:39.464Z,5.25
2023-03-29T18:04:08.970Z,5.90
2023-03-29T18:06:37.236Z,6.40
2023-03-29T18:09:05.757Z,5.30
2023-03-29T18:11:34.292Z,5.18
2023-03-29T18:14:04.959Z,5.07
2023-03-29T18:16:33.642Z,5.40
2023-03-29T18:19:02.165Z,5.85
2023-03-29T18:21:30.962Z,6.45
2023-03-29T18:23:59.968Z,6.18
2023-03-29T18:26:29.980Z,5.97
2023-03-29T18:28:58.257Z,5.18
2023-03-29T18:31:28.245Z,5.40
2023-03-29T18:33:57.203Z,5.90
2023-03-29T18:36:26.305Z,6.75
2023-03-29T18:38:56.001Z,5.53
2023-03-29T18:41:25.227Z,5.53
2023-03-29T18:43:57.430Z,4.28
2023-03-29T18:46:30.393Z,6.03
2023-03-29T18:49:01.780Z,7.40
2023-03-29T18:51:31.240Z,5.70
2023-03-29T18:54:00.724Z,7.03
2023-03-29T18:56:29.062Z,8.32
2023-03-29T18:58:57.263Z,6.40
2023-03-29T19:01:26.029Z,5.28
2023-03-29T19:03:54.446Z,5.15
2023-03-29T19:06:23.089Z,4.47
2023-03-29T19:08:54.131Z,5.38
2023-03-29T19:11:23.140Z,5.93
2023-03-29T19:13:52.723Z,4.95
2023-03-29T19:16:21.119Z,4.05
2023-03-29T19:18:49.398Z,4.25
2023-03-29T19:21:18.096Z,3.92
2023-03-29T19:24:06.670Z,4.82
2023-03-29T19:26:34.851Z,3.90
2023-03-29T19:29:03.536Z,4.38
2023-03-29T19:31:33.696Z,4.07
2023-03-29T19:34:02.354Z,5.38
2023-03-29T19:36:30.562Z,5.35
2023-03-29T19:38:59.712Z,6.55
2023-03-29T19:41:28.601Z,7.10
2023-03-29T19:43:56.655Z,9.48
2023-03-29T19:46:27.903Z,12.15
2023-03-29T19:48:56.340Z,8.80
2023-03-29T19:51:27.225Z,10.82
2023-03-29T19:53:56.626Z,12.07
2023-03-29T19:56:26.077Z,13.48
2023-03-29T19:58:55.169Z,18.08
2023-03-29T20:01:27.411Z,42.50
2023-03-29T20:03:56.402Z,13.45
2023-03-29T20:06:25.353Z,11.75
2023-03-29T20:08:55.000Z,9.38
2023-03-29T20:11:24.497Z,9.75
2023-03-29T20:13:53.486Z,8.98
2023-03-29T20:16:24.499Z,13.43
2023-03-29T20:18:54.164Z,12.40
2023-03-29T20:21:22.299Z,16.15
2023-03-29T20:23:51.272Z,20.77
2023-03-29T20:26:19.453Z,20.38
2023-03-29T20:28:47.870Z,17.40
2023-03-29T20:31:16.655Z,18.83
2023-03-29T20:33:45.624Z,18.60
2023-03-29T20:36:18.852Z,16.85
2023-03-29T20:38:47.629Z,14.35
2023-03-29T20:41:16.604Z,11.48
2023-03-29T20:43:48.212Z,12.55
2023-03-29T20:46:24.139Z,11.27
2023-03-29T20:48:56.181Z,7.68
2023-03-29T20:51:32.085Z,8.38
2023-03-29T20:54:05.009Z,8.00
2023-03-29T20:56:39.132Z,10.27
2023-03-29T20:59:12.383Z,9.18
2023-03-29T21:01:41.011Z,9.13
2023-03-29T21:04:35.345Z,10.45
2023-03-29T21:07:06.574Z,10.23
2023-03-29T21:09:36.792Z,11.02
2023-03-29T21:12:29.979Z,10.45
2023-03-29T21:14:58.690Z,7.50
2023-03-29T21:17:27.890Z,6.65
2023-03-29T21:19:56.312Z,7.78
2023-03-29T21:22:25.899Z,8.82
2023-03-29T21:24:54.476Z,10.98
2023-03-29T21:27:22.605Z,10.95
2023-03-29T21:29:51.556Z,10.48
2023-03-29T21:32:21.371Z,13.05
2023-03-29T21:34:50.226Z,15.23
2023-03-29T21:37:18.679Z,18.85
2023-03-29T21:39:47.541Z,19.10
2023-03-29T21:42:16.518Z,20.55
2023-03-29T21:44:45.109Z,15.13
2023-03-29T21:47:13.381Z,12.50
2023-03-29T21:49:42.283Z,9.52
2023-03-29T21:52:11.035Z,9.95
2023-03-29T21:54:39.274Z,9.95
2023-03-29T21:57:07.940Z,11.15
2023-03-29T21:59:36.321Z,9.00
2023-03-29T22:02:05.355Z,8.73
2023-03-29T22:04:37.203Z,8.27
2023-03-29T22:07:06.672Z,8.88
2023-03-29T22:09:35.510Z,7.82
2023-03-29T22:12:05.666Z,10.25
2023-03-29T22:14:36.987Z,8.27
2023-03-29T22:17:07.149Z,8.95
2023-03-29T22:19:39.536Z,8.23
2023-03-29T22:22:13.742Z,8.15
2023-03-29T22:24:42.772Z,7.07
2023-03-29T22:27:12.002Z,7.32
2023-03-29T22:29:40.063Z,7.82
2023-03-29T22:32:08.151Z,6.70
2023-03-29T22:34:36.489Z,6.78
2023-03-29T22:37:05.735Z,6.43
2023-03-29T22:39:37.193Z,7.55
2023-03-29T22:42:05.412Z,6.72
2023-03-29T22:44:34.189Z,7.00
2023-03-29T22:47:02.398Z,6.25
2023-03-29T22:49:30.833Z,7.18
2023-03-29T22:51:59.872Z,7.50
2023-03-29T22:54:29.326Z,7.22
2023-03-29T22:56:58.421Z,7.18
2023-03-29T22:59:27.459Z,6.95
2023-03-29T23:01:56.083Z,7.55
2023-03-29T23:04:24.337Z,5.43
2023-03-29T23:06:53.237Z,6.13
2023-03-29T23:09:22.862Z,5.15
2023-03-29T23:11:51.576Z,7.25
2023-03-29T23:14:20.314Z,7.03
2023-03-29T23:16:48.346Z,6.50
2023-03-29T23:19:16.600Z,6.28
2023-03-29T23:21:44.954Z,7.28
2023-03-29T23:24:13.625Z,7.07
2023-03-29T23:26:41.684Z,7.65
2023-03-29T23:29:09.788Z,6.43
2023-03-29T23:31:38.315Z,6.40
2023-03-29T23:34:06.446Z,5.65
2023-03-29T23:36:35.799Z,5.88
2023-03-29T23:39:07.243Z,5.70
2023-03-29T23:41:36.422Z,5.95
2023-03-29T23:44:05.463Z,5.32
2023-03-29T23:46:34.799Z,6.40
2023-03-29T23:49:03.663Z,5.95
2023-03-29T23:51:35.100Z,5.88
2023-03-29T23:54:03.467Z,6.22
2023-03-29T23:56:31.576Z,7.53
2023-03-29T23:59:00.069Z,5.57
